createdAt,value
2022-08-25T00:00:23.166Z,5.43
2022-08-25T00:02:55.259Z,7.45
2022-08-25T00:05:29.210Z,5.60
2022-08-25T00:07:57.663Z,4.20
2022-08-25T00:10:25.926Z,2.72
2022-08-25T00:12:53.816Z,5.00
2022-08-25T00:15:24.133Z,2.30
2022-08-25T00:17:52.156Z,2.50
2022-08-25T00:20:20.159Z,4.65
2022-08-25T00:22:49.136Z,4.40
2022-08-25T00:25:17.622Z,2.55
2022-08-25T00:27:47.451Z,8.95
2022-08-25T00:30:40.523Z,5.00
2022-08-25T00:33:08.810Z,4.55
2022-08-25T00:35:36.587Z,4.05
2022-08-25T00:38:10.357Z,3.65
2022-08-25T00:40:39.555Z,3.92
2022-08-25T00:43:09.717Z,5.10
2022-08-25T00:45:38.924Z,4.78
2022-08-25T00:48:07.065Z,3.85
2022-08-25T00:50:35.364Z,7.93
2022-08-25T00:53:06.070Z,4.47
2022-08-25T00:55:40.510Z,7.43
2022-08-25T00:58:14.555Z,6.18
2022-08-25T01:00:49.736Z,5.13
2022-08-25T01:03:19.315Z,4.53
2022-08-25T01:05:49.654Z,6.07
2022-08-25T01:08:21.029Z,4.15
2022-08-25T01:13:26.865Z,8.43
2022-08-25T01:15:56.724Z,5.50
2022-08-25T01:18:26.056Z,5.38
2022-08-25T01:20:59.998Z,3.97
2022-08-25T01:23:27.806Z,10.02
2022-08-25T01:26:13.283Z,3.90
2022-08-25T01:29:02.952Z,4.38
2022-08-25T01:31:32.002Z,5.57
2022-08-25T01:34:00.418Z,3.65
2022-08-25T01:36:30.393Z,3.35
2022-08-25T01:38:58.708Z,4.93
2022-08-25T01:41:44.741Z,4.05
2022-08-25T01:44:16.176Z,7.22
2022-08-25T01:46:44.808Z,8.98
2022-08-25T01:49:12.396Z,6.45
2022-08-25T01:51:47.825Z,8.93
2022-08-25T01:54:15.705Z,7.80
2022-08-25T01:56:43.464Z,9.73
2022-08-25T01:59:11.307Z,6.18
2022-08-25T02:01:38.964Z,5.00
2022-08-25T02:04:07.467Z,7.18
2022-08-25T02:06:35.846Z,4.80
2022-08-25T02:09:10.415Z,3.95
2022-08-25T02:11:41.578Z,5.75
2022-08-25T02:16:42.034Z,9.57
2022-08-25T02:19:12.197Z,4.93
2022-08-25T02:21:40.156Z,7.00
2022-08-25T02:24:08.703Z,5.28
2022-08-25T02:26:36.787Z,5.80
2022-08-25T02:29:07.538Z,8.00
2022-08-25T02:31:36.507Z,8.45
2022-08-25T02:34:05.585Z,6.00
2022-08-25T02:36:34.136Z,8.75
2022-08-25T02:39:02.579Z,9.38
2022-08-25T02:41:33.520Z,9.23
2022-08-25T02:44:02.600Z,11.05
2022-08-25T02:46:35.193Z,6.90
2022-08-25T02:49:03.381Z,9.82
2022-08-25T02:51:32.077Z,14.77
2022-08-25T02:54:02.316Z,10.90
2022-08-25T02:56:31.753Z,10.30
2022-08-25T02:59:00.470Z,7.93
2022-08-25T03:01:29.323Z,13.45
2022-08-25T03:03:57.852Z,9.95
2022-08-25T03:06:25.848Z,13.32
2022-08-25T03:08:54.104Z,8.35
2022-08-25T03:11:22.164Z,9.02
2022-08-25T03:13:51.244Z,6.95
2022-08-25T03:16:20.360Z,8.30
2022-08-25T03:18:48.913Z,10.85
2022-08-25T03:21:18.303Z,8.20
2022-08-25T03:24:13.052Z,5.22
2022-08-25T03:26:55.881Z,10.32
2022-08-25T03:29:27.537Z,8.82
2022-08-25T03:31:59.943Z,5.45
2022-08-25T03:34:30.096Z,5.43
2022-08-25T03:36:58.656Z,6.88
2022-08-25T03:39:27.098Z,5.25
2022-08-25T03:41:54.845Z,10.70
2022-08-25T03:44:23.303Z,8.80
2022-08-25T03:46:52.410Z,6.50
2022-08-25T03:49:23.639Z,10.25
2022-08-25T03:54:23.554Z,9.65
2022-08-25T03:56:51.811Z,6.85
2022-08-25T03:59:21.013Z,5.93
2022-08-25T04:01:54.474Z,9.13
2022-08-25T04:04:22.892Z,5.72
2022-08-25T04:06:50.999Z,7.43
2022-08-25T04:09:19.229Z,7.28
2022-08-25T04:11:47.447Z,7.28
2022-08-25T04:14:21.451Z,6.80
2022-08-25T04:16:49.420Z,6.55
2022-08-25T04:19:18.189Z,9.32
2022-08-25T04:21:47.934Z,11.68
2022-08-25T04:24:16.917Z,8.80
2022-08-25T04:26:48.717Z,16.67
2022-08-25T04:29:19.614Z,15.35
2022-08-25T04:31:54.418Z,10.27
2022-08-25T04:34:30.198Z,10.52
2022-08-25T04:37:03.180Z,11.25
2022-08-25T04:39:31.016Z,11.30
2022-08-25T04:42:00.942Z,11.73
2022-08-25T04:44:30.156Z,10.10
2022-08-25T04:46:58.620Z,16.02
2022-08-25T04:49:27.483Z,11.90
2022-08-25T04:51:56.538Z,13.00
2022-08-25T04:54:24.356Z,17.02
2022-08-25T04:56:54.141Z,14.52
2022-08-25T04:59:24.124Z,15.35
2022-08-25T05:01:58.890Z,16.92
2022-08-25T05:04:28.320Z,23.50
2022-08-25T05:06:57.268Z,17.20
2022-08-25T05:09:28.075Z,20.17
2022-08-25T05:11:56.033Z,24.48
2022-08-25T05:14:26.548Z,16.35
2022-08-25T05:16:58.204Z,21.38
2022-08-25T05:19:26.702Z,14.15
2022-08-25T05:21:54.601Z,18.98
2022-08-25T05:26:53.792Z,18.60
2022-08-25T05:29:22.948Z,20.63
2022-08-25T05:31:51.885Z,21.00
2022-08-25T05:34:20.873Z,14.63
2022-08-25T05:36:49.951Z,15.13
2022-08-25T05:39:18.215Z,18.42
2022-08-25T05:41:45.921Z,16.67
2022-08-25T05:44:15.855Z,18.95
2022-08-25T05:46:45.669Z,18.58
2022-08-25T05:49:13.246Z,17.48
2022-08-25T05:51:40.957Z,16.05
2022-08-25T05:54:08.460Z,16.80
2022-08-25T05:56:36.091Z,19.33
2022-08-25T05:59:08.672Z,17.55
2022-08-25T06:01:55.834Z,19.98
2022-08-25T06:04:23.995Z,15.98
2022-08-25T06:06:54.142Z,17.45
2022-08-25T06:09:23.441Z,15.35
2022-08-25T06:11:54.989Z,17.65
2022-08-25T06:14:24.324Z,20.13
2022-08-25T06:16:54.187Z,14.75
2022-08-25T06:19:23.633Z,14.35
2022-08-25T06:21:55.695Z,21.33
2022-08-25T06:24:25.128Z,15.35
2022-08-25T06:26:53.640Z,17.88
2022-08-25T06:29:21.978Z,18.08
2022-08-25T06:31:50.176Z,13.95
2022-08-25T06:34:19.013Z,16.23
2022-08-25T06:36:48.939Z,18.58
2022-08-25T06:39:17.319Z,22.90
2022-08-25T06:41:44.973Z,20.98
2022-08-25T06:44:12.947Z,20.27
2022-08-25T06:46:40.723Z,18.73
2022-08-25T06:49:10.953Z,22.27
2022-08-25T06:51:38.978Z,21.00
2022-08-25T06:54:10.282Z,18.63
2022-08-25T06:56:42.600Z,18.88
2022-08-25T06:59:11.752Z,20.60
2022-08-25T07:01:41.708Z,20.48
2022-08-25T07:04:12.799Z,21.08
2022-08-25T07:06:42.064Z,20.27
2022-08-25T07:09:11.483Z,16.98
2022-08-25T07:11:40.875Z,16.15
2022-08-25T07:14:11.694Z,18.98
2022-08-25T07:16:41.718Z,18.27
2022-08-25T07:19:11.508Z,17.63
2022-08-25T07:21:45.816Z,18.52
2022-08-25T07:24:17.433Z,17.35
2022-08-25T07:26:47.614Z,18.50
2022-08-25T07:29:20.041Z,15.48
2022-08-25T07:32:00.496Z,20.60
2022-08-25T07:34:52.207Z,20.38
2022-08-25T07:40:14.732Z,17.90
2022-08-25T07:42:43.391Z,16.90
2022-08-25T07:45:12.852Z,19.60
2022-08-25T07:47:40.982Z,19.55
2022-08-25T07:50:12.241Z,16.23
2022-08-25T07:52:41.448Z,15.90
2022-08-25T07:55:11.170Z,22.05
2022-08-25T07:57:41.535Z,16.02
2022-08-25T08:00:16.601Z,18.92
2022-08-25T08:02:44.797Z,15.68
2022-08-25T08:05:13.812Z,15.95
2022-08-25T08:07:43.186Z,15.82
2022-08-25T08:13:02.708Z,17.35
2022-08-25T08:15:30.511Z,17.80
2022-08-25T08:17:59.466Z,17.20
2022-08-25T08:20:29.003Z,21.65
2022-08-25T08:22:56.986Z,16.45
2022-08-25T08:25:27.385Z,15.80
2022-08-25T08:27:56.885Z,14.70
2022-08-25T08:30:26.282Z,14.73
2022-08-25T08:33:12.392Z,14.25
2022-08-25T08:35:42.081Z,12.52
2022-08-25T08:38:17.324Z,12.85
2022-08-25T08:41:33.882Z,13.52
2022-08-25T08:44:40.812Z,12.40
2022-08-25T08:47:38.040Z,13.05
2022-08-25T08:50:08.576Z,9.43
2022-08-25T08:52:46.399Z,8.63
2022-08-25T08:55:30.327Z,13.13
2022-08-25T08:58:02.952Z,9.77
2022-08-25T09:00:32.609Z,9.45
2022-08-25T09:03:35.325Z,9.70
2022-08-25T09:06:10.997Z,10.25
2022-08-25T09:08:44.715Z,9.13
2022-08-25T09:11:31.560Z,15.68
2022-08-25T09:14:19.204Z,10.73
2022-08-25T09:16:57.327Z,11.02
2022-08-25T09:19:46.653Z,12.63
2022-08-25T09:22:33.554Z,13.18
2022-08-25T09:25:48.724Z,10.65
2022-08-25T09:28:21.904Z,14.60
2022-08-25T09:31:02.669Z,9.68
2022-08-25T09:33:33.660Z,10.65
2022-08-25T09:36:06.086Z,11.65
2022-08-25T09:38:34.983Z,8.43
2022-08-25T09:41:03.718Z,9.52
2022-08-25T09:43:40.574Z,10.43
2022-08-25T09:46:18.669Z,9.85
2022-08-25T09:48:56.985Z,6.03
2022-08-25T09:51:28.560Z,10.55
2022-08-25T09:54:10.819Z,17.63
2022-08-25T09:57:02.500Z,7.13
2022-08-25T09:59:35.964Z,10.82
2022-08-25T10:02:25.807Z,10.60
2022-08-25T10:04:53.706Z,13.32
2022-08-25T10:07:25.537Z,11.10
2022-08-25T10:10:03.348Z,9.75
2022-08-25T10:12:43.139Z,9.50
2022-08-25T10:15:38.111Z,6.25
2022-08-25T10:18:18.586Z,6.13
2022-08-25T10:21:07.674Z,4.38
2022-08-25T10:23:57.470Z,7.70
2022-08-25T10:26:39.955Z,7.97
2022-08-25T10:29:25.724Z,6.78
2022-08-25T10:32:20.535Z,5.10
2022-08-25T10:34:53.407Z,6.63
2022-08-25T10:37:26.817Z,7.32
2022-08-25T10:40:03.261Z,8.55
2022-08-25T10:42:48.987Z,7.60
2022-08-25T10:45:44.287Z,5.13
2022-08-25T10:48:13.197Z,8.98
2022-08-25T10:50:48.959Z,5.60
2022-08-25T10:53:59.033Z,6.30
2022-08-25T10:56:40.937Z,5.47
2022-08-25T10:59:30.000Z,9.55
2022-08-25T11:02:31.679Z,5.50
2022-08-25T11:05:25.009Z,7.45
2022-08-25T11:07:59.801Z,6.43
2022-08-25T11:10:38.009Z,10.63
2022-08-25T11:13:16.547Z,8.13
2022-08-25T11:16:15.910Z,4.13
2022-08-25T11:19:30.986Z,5.07
2022-08-25T11:22:09.546Z,7.53
2022-08-25T11:25:07.158Z,17.20
2022-08-25T11:28:03.487Z,8.30
2022-08-25T11:30:31.115Z,8.52
2022-08-25T11:33:00.073Z,7.88
2022-08-25T11:35:37.183Z,11.20
2022-08-25T11:38:28.369Z,8.18
2022-08-25T11:41:19.054Z,10.07
2022-08-25T11:44:04.521Z,18.30
2022-08-25T11:46:45.793Z,5.40
2022-08-25T11:49:35.751Z,5.85
2022-08-25T11:52:06.399Z,7.95
2022-08-25T11:54:43.104Z,11.43
2022-08-25T11:57:22.964Z,10.65
2022-08-25T11:59:50.953Z,16.00
2022-08-25T12:02:39.618Z,5.97
2022-08-25T12:05:15.648Z,3.60
2022-08-25T12:08:11.323Z,3.38
2022-08-25T12:11:03.083Z,2.38
2022-08-25T12:13:47.471Z,2.88
2022-08-25T12:16:43.576Z,4.90
2022-08-25T12:19:25.430Z,3.67
2022-08-25T12:21:57.142Z,3.50
2022-08-25T12:24:47.819Z,5.05
2022-08-25T12:30:40.576Z,4.35
2022-08-25T12:33:26.324Z,2.28
2022-08-25T12:36:03.761Z,2.63
2022-08-25T12:38:51.926Z,2.95
2022-08-25T12:41:22.374Z,3.80
2022-08-25T12:44:08.964Z,9.50
2022-08-25T12:46:39.530Z,4.63
2022-08-25T12:49:34.473Z,8.32
2022-08-25T12:52:10.784Z,3.50
2022-08-25T12:55:03.380Z,6.57
2022-08-25T12:57:38.162Z,6.03
2022-08-25T13:03:35.212Z,5.35
2022-08-25T13:06:13.657Z,6.78
2022-08-25T13:08:56.231Z,2.67
2022-08-25T13:11:36.881Z,4.63
2022-08-25T13:14:18.024Z,3.87
2022-08-25T13:19:22.530Z,4.78
2022-08-25T13:21:50.893Z,2.58
2022-08-25T13:24:40.251Z,2.95
2022-08-25T13:27:18.097Z,4.57
2022-08-25T13:29:57.052Z,4.97
2022-08-25T13:32:32.274Z,4.85
2022-08-25T13:35:12.095Z,4.68
2022-08-25T13:37:42.100Z,5.63
2022-08-25T13:40:29.416Z,7.20
2022-08-25T13:43:02.907Z,5.72
2022-08-25T13:45:41.131Z,3.47
2022-08-25T13:48:21.175Z,4.72
2022-08-25T13:50:52.926Z,4.63
2022-08-25T13:53:26.442Z,3.78
2022-08-25T13:55:59.983Z,5.70
2022-08-25T13:58:44.931Z,4.07
2022-08-25T14:01:47.141Z,4.70
2022-08-25T14:04:32.382Z,2.83
2022-08-25T14:07:14.580Z,3.35
2022-08-25T14:10:14.847Z,2.55
2022-08-25T14:12:47.055Z,2.35
2022-08-25T14:15:17.653Z,2.28
2022-08-25T14:18:08.404Z,2.58
2022-08-25T14:20:37.838Z,3.92
2022-08-25T14:23:10.083Z,3.45
2022-08-25T14:25:40.469Z,2.67
2022-08-25T14:28:14.020Z,3.53
2022-08-25T14:30:53.934Z,3.17
2022-08-25T14:33:25.706Z,3.35
2022-08-25T14:35:58.540Z,1.80
2022-08-25T14:38:26.511Z,3.00
2022-08-25T14:40:54.963Z,2.75
2022-08-25T14:43:31.529Z,1.80
2022-08-25T14:46:02.913Z,2.17
2022-08-25T14:48:42.490Z,4.43
2022-08-25T14:51:12.228Z,5.95
2022-08-25T14:53:41.055Z,3.55
2022-08-25T14:56:10.398Z,1.88
2022-08-25T14:58:50.995Z,2.78
2022-08-25T15:01:29.271Z,1.13
2022-08-25T15:04:03.653Z,3.90
2022-08-25T15:06:33.253Z,1.30
2022-08-25T15:09:11.240Z,2.58
2022-08-25T15:11:42.782Z,4.13
2022-08-25T15:14:12.341Z,2.13
2022-08-25T15:16:45.517Z,3.88
2022-08-25T15:19:16.019Z,5.22
2022-08-25T15:21:45.991Z,2.78
2022-08-25T15:24:17.541Z,3.25
2022-08-25T15:27:00.989Z,2.50
2022-08-25T15:29:30.545Z,3.17
2022-08-25T15:32:00.581Z,7.22
2022-08-25T15:34:30.073Z,3.78
2022-08-25T15:36:58.942Z,5.38
2022-08-25T15:39:27.704Z,5.28
2022-08-25T15:41:57.131Z,8.75
2022-08-25T15:44:29.472Z,5.63
2022-08-25T15:46:59.531Z,2.30
2022-08-25T15:49:32.094Z,3.28
2022-08-25T15:52:00.621Z,3.67
2022-08-25T15:54:30.383Z,2.85
2022-08-25T15:56:58.593Z,4.07
2022-08-25T15:59:30.573Z,3.30
2022-08-25T16:01:59.491Z,3.58
2022-08-25T16:04:29.148Z,2.63
2022-08-25T16:06:58.675Z,2.35
2022-08-25T16:09:26.541Z,2.28
2022-08-25T16:11:56.249Z,2.53
2022-08-25T16:14:27.739Z,3.08
2022-08-25T16:16:58.400Z,4.15
2022-08-25T16:19:29.460Z,3.78
2022-08-25T16:21:58.545Z,3.72
2022-08-25T16:24:27.948Z,1.70
2022-08-25T16:27:11.120Z,2.22
2022-08-25T16:29:45.759Z,3.40
2022-08-25T16:32:14.769Z,2.80
2022-08-25T16:34:44.289Z,5.90
2022-08-25T16:37:13.004Z,5.70
2022-08-25T16:39:44.264Z,4.70
2022-08-25T16:42:12.925Z,5.90
2022-08-25T16:44:43.100Z,5.05
2022-08-25T16:47:14.142Z,2.80
2022-08-25T16:52:29.985Z,3.38
2022-08-25T16:55:16.371Z,4.28
2022-08-25T16:57:49.940Z,7.78
2022-08-25T17:00:22.352Z,6.30
2022-08-25T17:02:55.150Z,6.30
2022-08-25T17:05:23.970Z,7.60
2022-08-25T17:08:10.178Z,8.93
2022-08-25T17:10:43.133Z,5.93
2022-08-25T17:13:13.266Z,6.90
2022-08-25T17:15:47.482Z,6.78
2022-08-25T17:18:15.637Z,10.23
2022-08-25T17:20:45.406Z,7.95
2022-08-25T17:23:17.429Z,10.57
2022-08-25T17:25:52.202Z,11.77
2022-08-25T17:28:19.890Z,8.95
2022-08-25T17:30:49.096Z,10.00
2022-08-25T17:33:35.859Z,16.83
2022-08-25T17:36:04.829Z,14.55
2022-08-25T17:38:34.824Z,12.95
2022-08-25T17:41:09.051Z,11.77
2022-08-25T17:43:41.373Z,14.32
2022-08-25T17:46:12.188Z,19.38
2022-08-25T17:48:43.795Z,14.02
2022-08-25T17:51:17.837Z,14.60
2022-08-25T17:53:46.937Z,13.00
2022-08-25T17:56:23.445Z,16.33
2022-08-25T17:59:10.521Z,13.38
2022-08-25T18:01:41.185Z,16.52
2022-08-25T18:04:17.205Z,18.15
2022-08-25T18:06:47.560Z,14.35
2022-08-25T18:09:31.636Z,14.00
2022-08-25T18:11:59.543Z,16.35
2022-08-25T18:14:46.334Z,16.98
2022-08-25T18:17:15.656Z,15.55
2022-08-25T18:19:49.797Z,17.65
2022-08-25T18:22:36.894Z,18.00
2022-08-25T18:25:25.349Z,16.67
2022-08-25T18:28:12.475Z,20.52
2022-08-25T18:30:40.598Z,16.25
2022-08-25T18:33:08.417Z,18.60
2022-08-25T18:35:36.518Z,24.77
2022-08-25T18:38:25.430Z,17.75
2022-08-25T18:41:02.964Z,23.92
2022-08-25T18:43:33.858Z,16.75
2022-08-25T18:46:04.707Z,19.23
2022-08-25T18:48:33.128Z,20.80
2022-08-25T18:51:01.460Z,16.58
2022-08-25T18:53:49.735Z,16.48
2022-08-25T18:56:19.772Z,18.33
2022-08-25T18:58:48.422Z,21.33
2022-08-25T19:01:18.269Z,18.35
2022-08-25T19:03:46.711Z,18.73
2022-08-25T19:06:17.442Z,21.30
2022-08-25T19:08:49.145Z,18.38
2022-08-25T19:11:17.950Z,15.52
2022-08-25T19:13:51.487Z,17.20
2022-08-25T19:16:35.719Z,17.58
2022-08-25T19:19:07.638Z,13.85
2022-08-25T19:21:35.969Z,15.27
2022-08-25T19:24:05.749Z,13.23
2022-08-25T19:26:37.613Z,15.48
2022-08-25T19:29:09.970Z,21.08
2022-08-25T19:31:39.817Z,15.82
2022-08-25T19:34:12.344Z,15.40
2022-08-25T19:36:40.165Z,16.98
2022-08-25T19:39:10.473Z,18.38
2022-08-25T19:41:44.907Z,16.52
2022-08-25T19:44:13.536Z,15.32
2022-08-25T19:46:44.136Z,13.68
2022-08-25T19:49:22.677Z,16.23
2022-08-25T19:51:52.197Z,18.23
2022-08-25T19:54:25.146Z,16.90
2022-08-25T19:56:54.416Z,16.13
2022-08-25T19:59:34.369Z,19.50
2022-08-25T20:02:15.194Z,16.70
2022-08-25T20:04:49.326Z,17.08
2022-08-25T20:07:20.326Z,20.48
2022-08-25T20:09:49.814Z,17.17
2022-08-25T20:12:20.186Z,17.20
2022-08-25T20:14:50.000Z,15.85
2022-08-25T20:17:23.772Z,19.13
2022-08-25T20:20:00.094Z,17.17
2022-08-25T20:22:31.020Z,23.48
2022-08-25T20:25:02.778Z,21.08
2022-08-25T20:27:38.994Z,18.08
2022-08-25T20:30:14.911Z,19.15
2022-08-25T20:32:45.746Z,15.35
2022-08-25T20:35:14.690Z,18.02
2022-08-25T20:37:46.634Z,19.42
2022-08-25T20:40:20.774Z,16.08
2022-08-25T20:42:55.027Z,15.20
2022-08-25T20:45:24.399Z,13.82
2022-08-25T20:47:57.399Z,14.85
2022-08-25T20:50:28.036Z,19.20
2022-08-25T20:53:04.004Z,15.48
2022-08-25T20:55:47.980Z,22.35
2022-08-25T20:58:22.821Z,16.80
2022-08-25T21:00:53.306Z,23.52
2022-08-25T21:03:21.530Z,20.67
2022-08-25T21:05:53.494Z,16.70
2022-08-25T21:08:22.164Z,20.65
2022-08-25T21:10:52.044Z,16.27
2022-08-25T21:13:20.012Z,18.73
2022-08-25T21:15:52.537Z,16.95
2022-08-25T21:18:27.645Z,14.13
2022-08-25T21:21:11.363Z,16.85
2022-08-25T21:23:39.711Z,18.88
2022-08-25T21:26:20.391Z,14.43
2022-08-25T21:28:49.143Z,14.90
2022-08-25T21:31:23.051Z,14.07
2022-08-25T21:33:54.489Z,16.08
2022-08-25T21:36:24.709Z,11.63
2022-08-25T21:38:54.223Z,16.88
2022-08-25T21:41:25.549Z,18.95
2022-08-25T21:46:27.834Z,14.98
2022-08-25T21:48:59.973Z,15.00
2022-08-25T21:54:12.082Z,15.88
2022-08-25T21:56:53.448Z,14.45
2022-08-25T21:59:31.074Z,14.10
2022-08-25T22:02:22.412Z,17.15
2022-08-25T22:04:54.957Z,19.13
2022-08-25T22:07:24.908Z,15.15
2022-08-25T22:09:55.107Z,14.65
2022-08-25T22:12:25.023Z,14.32
2022-08-25T22:14:53.060Z,14.23
2022-08-25T22:17:24.420Z,16.90
2022-08-25T22:19:53.623Z,13.43
2022-08-25T22:22:23.868Z,16.83
2022-08-25T22:24:53.109Z,16.10
2022-08-25T22:27:23.385Z,15.13
2022-08-25T22:29:54.134Z,14.38
2022-08-25T22:32:21.915Z,18.57
2022-08-25T22:34:50.097Z,17.90
2022-08-25T22:37:20.375Z,18.65
2022-08-25T22:39:48.306Z,14.40
2022-08-25T22:42:16.074Z,13.45
2022-08-25T22:44:43.992Z,16.08
2022-08-25T22:47:12.444Z,16.33
2022-08-25T22:49:41.003Z,22.38
2022-08-25T22:52:12.917Z,14.32
2022-08-25T22:54:42.196Z,18.02
2022-08-25T22:57:11.088Z,20.38
2022-08-25T22:59:39.309Z,13.38
2022-08-25T23:02:08.538Z,20.92
2022-08-25T23:04:41.265Z,19.65
2022-08-25T23:07:11.516Z,20.60
2022-08-25T23:09:41.667Z,21.05
2022-08-25T23:12:12.764Z,14.40
2022-08-25T23:14:42.253Z,24.08
2022-08-25T23:17:13.486Z,18.80
2022-08-25T23:19:41.175Z,19.73
2022-08-25T23:22:10.361Z,19.20
2022-08-25T23:24:44.937Z,17.60
2022-08-25T23:27:16.974Z,22.65
2022-08-25T23:29:47.984Z,15.00
2022-08-25T23:32:18.374Z,23.88
2022-08-25T23:34:47.086Z,17.25
2022-08-25T23:37:16.229Z,15.65
2022-08-25T23:39:49.371Z,18.23
2022-08-25T23:42:19.226Z,16.27
2022-08-25T23:44:48.508Z,16.25
2022-08-25T23:47:16.835Z,16.40
2022-08-25T23:49:45.216Z,17.98
2022-08-25T23:52:17.308Z,16.75
2022-08-25T23:54:46.306Z,16.80
2022-08-25T23:57:15.523Z,17.90
2022-08-25T23:59:43.522Z,18.58
